createdAt,value
2023-04-09T00:00:30.302Z,1.73
2023-04-09T00:02:57.780Z,1.73
2023-04-09T00:05:26.675Z,1.59
2023-04-09T00:07:54.347Z,1.55
2023-04-09T00:10:22.046Z,1.47
2023-04-09T00:12:49.579Z,1.45
2023-04-09T00:15:24.352Z,1.41
2023-04-09T00:17:57.894Z,1.48
2023-04-09T00:20:26.736Z,1.40
2023-04-09T00:22:54.273Z,1.46
2023-04-09T00:25:21.736Z,1.37
2023-04-09T00:27:49.078Z,1.51
2023-04-09T00:30:16.693Z,1.64
2023-04-09T00:32:44.135Z,1.51
2023-04-09T00:35:11.551Z,1.38
2023-04-09T00:37:40.293Z,1.32
2023-04-09T00:40:08.637Z,1.34
2023-04-09T00:42:37.314Z,1.26
2023-04-09T00:45:05.896Z,0.99
2023-04-09T00:47:34.622Z,1.22
2023-04-09T00:50:02.719Z,1.11
2023-04-09T00:52:30.978Z,1.01
2023-04-09T00:55:01.572Z,0.94
2023-04-09T00:57:29.410Z,0.73
2023-04-09T00:59:56.940Z,1.01
2023-04-09T01:02:24.518Z,1.07
2023-04-09T01:04:52.907Z,0.99
2023-04-09T01:07:32.690Z,0.93
2023-04-09T01:10:10.163Z,0.96
2023-04-09T01:12:47.281Z,1.00
2023-04-09T01:15:19.153Z,0.97
2023-04-09T01:17:54.020Z,1.20
2023-04-09T01:20:29.819Z,1.38
2023-04-09T01:23:06.037Z,1.59
2023-04-09T01:25:46.095Z,1.62
2023-04-09T01:28:17.980Z,1.81
2023-04-09T01:30:58.358Z,2.07
2023-04-09T01:33:27.078Z,2.18
2023-04-09T01:35:55.773Z,2.38
2023-04-09T01:38:25.097Z,2.60
2023-04-09T01:40:53.870Z,2.75
2023-04-09T01:43:23.081Z,2.84
2023-04-09T01:45:52.376Z,2.83
2023-04-09T01:48:21.276Z,2.87
2023-04-09T01:50:53.429Z,2.93
2023-04-09T01:53:22.408Z,3.12
2023-04-09T01:55:50.379Z,3.30
2023-04-09T01:58:17.806Z,3.37
2023-04-09T02:00:49.279Z,3.55
2023-04-09T02:03:19.693Z,3.78
2023-04-09T02:05:53.305Z,3.94
2023-04-09T02:08:23.902Z,4.07
2023-04-09T02:10:55.577Z,4.12
2023-04-09T02:13:25.744Z,4.24
2023-04-09T02:15:56.774Z,4.08
2023-04-09T02:18:28.511Z,4.13
2023-04-09T02:20:56.711Z,4.19
2023-04-09T02:23:24.447Z,4.18
2023-04-09T02:25:54.424Z,4.30
2023-04-09T02:28:21.904Z,4.40
2023-04-09T02:30:49.266Z,4.37
2023-04-09T02:33:18.020Z,4.40
2023-04-09T02:35:45.446Z,4.45
2023-04-09T02:38:13.778Z,4.51
2023-04-09T02:40:41.666Z,4.53
2023-04-09T02:43:09.191Z,4.59
2023-04-09T02:45:37.205Z,4.62
2023-04-09T02:48:04.986Z,4.57
2023-04-09T02:50:33.731Z,4.60
2023-04-09T02:53:01.155Z,4.67
2023-04-09T02:55:28.656Z,4.72
2023-04-09T02:57:56.093Z,4.64
2023-04-09T03:00:23.696Z,4.58
2023-04-09T03:02:51.171Z,4.59
2023-04-09T03:05:18.664Z,4.66
2023-04-09T03:07:47.711Z,4.42
2023-04-09T03:10:16.543Z,4.46
2023-04-09T03:12:44.502Z,4.58
2023-04-09T03:15:12.181Z,4.60
2023-04-09T03:17:41.119Z,4.71
2023-04-09T03:20:09.115Z,4.52
2023-04-09T03:22:37.226Z,4.58
2023-04-09T03:25:06.966Z,4.40
2023-04-09T03:27:34.400Z,4.42
2023-04-09T03:30:02.342Z,4.45
2023-04-09T03:32:29.732Z,4.58
2023-04-09T03:34:57.111Z,4.77
2023-04-09T03:37:24.485Z,4.71
2023-04-09T03:39:51.851Z,4.63
2023-04-09T03:42:20.556Z,4.75
2023-04-09T03:44:47.928Z,4.81
2023-04-09T03:47:15.349Z,4.90
2023-04-09T03:49:42.761Z,4.79
2023-04-09T03:52:10.336Z,4.91
2023-04-09T03:54:37.803Z,5.09
2023-04-09T03:57:05.220Z,5.20
2023-04-09T03:59:33.880Z,5.23
2023-04-09T04:02:01.678Z,5.22
2023-04-09T04:04:29.379Z,5.21
2023-04-09T04:06:56.873Z,5.34
2023-04-09T04:09:24.326Z,5.11
2023-04-09T04:11:51.694Z,5.07
2023-04-09T04:14:19.047Z,5.06
2023-04-09T04:16:47.763Z,5.30
2023-04-09T04:19:15.454Z,5.44
2023-04-09T04:21:42.891Z,5.13
2023-04-09T04:24:10.356Z,5.33
2023-04-09T04:26:40.333Z,5.21
2023-04-09T04:29:10.543Z,5.20
2023-04-09T04:31:37.935Z,5.42
2023-04-09T04:34:06.645Z,5.46
2023-04-09T04:36:34.011Z,5.56
2023-04-09T04:39:01.396Z,5.63
2023-04-09T04:41:29.331Z,5.55
2023-04-09T04:43:57.164Z,5.44
2023-04-09T04:46:24.565Z,5.41
2023-04-09T04:48:52.246Z,5.61
2023-04-09T04:51:21.149Z,5.64
2023-04-09T04:53:48.531Z,5.54
2023-04-09T04:56:16.301Z,5.48
2023-04-09T04:58:43.826Z,5.37
2023-04-09T05:01:11.231Z,5.34
2023-04-09T05:03:38.658Z,5.41
2023-04-09T05:06:06.145Z,5.51
2023-04-09T05:08:34.858Z,5.48
2023-04-09T05:11:02.216Z,5.42
2023-04-09T05:13:29.582Z,5.37
2023-04-09T05:15:56.962Z,5.27
2023-04-09T05:18:24.341Z,5.31
2023-04-09T05:20:51.722Z,5.28
2023-04-09T05:23:19.103Z,5.42
2023-04-09T05:25:49.295Z,5.39
2023-04-09T05:28:17.412Z,5.41
2023-04-09T05:30:47.384Z,5.41
2023-04-09T05:33:14.786Z,5.32
2023-04-09T05:35:42.196Z,5.18
2023-04-09T05:38:09.577Z,5.21
2023-04-09T05:40:39.099Z,5.29
2023-04-09T05:43:07.848Z,5.45
2023-04-09T05:45:35.931Z,5.69
2023-04-09T05:48:03.318Z,5.98
2023-04-09T05:50:31.856Z,6.04
2023-04-09T05:53:01.934Z,6.18
2023-04-09T05:55:29.303Z,6.13
2023-04-09T05:57:57.143Z,6.09
2023-04-09T06:00:25.879Z,5.89
2023-04-09T06:02:53.428Z,6.12
2023-04-09T06:05:21.424Z,6.07
2023-04-09T06:07:49.063Z,5.89
2023-04-09T06:10:16.541Z,5.79
2023-04-09T06:12:43.920Z,5.89
2023-04-09T06:15:12.261Z,6.30
2023-04-09T06:17:41.134Z,6.46
2023-04-09T06:20:09.474Z,6.63
2023-04-09T06:22:36.917Z,6.77
2023-04-09T06:25:04.957Z,6.35
2023-04-09T06:27:35.255Z,6.35
2023-04-09T06:30:02.721Z,6.33
2023-04-09T06:32:32.041Z,6.24
2023-04-09T06:35:02.386Z,6.33
2023-04-09T06:37:29.782Z,6.47
2023-04-09T06:40:00.951Z,6.46
2023-04-09T06:42:29.142Z,6.70
2023-04-09T06:44:56.576Z,6.60
2023-04-09T06:47:24.011Z,6.67
2023-04-09T06:49:51.369Z,6.64
2023-04-09T06:52:22.124Z,6.77
2023-04-09T06:54:49.486Z,7.02
2023-04-09T06:57:18.985Z,6.91
2023-04-09T06:59:46.353Z,6.93
2023-04-09T07:02:13.768Z,6.98
2023-04-09T07:04:41.372Z,6.73
2023-04-09T07:07:08.763Z,7.08
2023-04-09T07:09:37.434Z,6.91
2023-04-09T07:12:04.864Z,7.21
2023-04-09T07:14:32.232Z,7.55
2023-04-09T07:16:59.573Z,7.55
2023-04-09T07:19:27.013Z,7.51
2023-04-09T07:21:54.408Z,7.65
2023-04-09T07:24:21.816Z,8.02
2023-04-09T07:26:52.079Z,7.97
2023-04-09T07:29:20.642Z,8.27
2023-04-09T07:31:48.068Z,8.06
2023-04-09T07:34:15.635Z,8.28
2023-04-09T07:36:43.545Z,8.63
2023-04-09T07:39:10.923Z,8.63
2023-04-09T07:41:38.403Z,8.55
2023-04-09T07:44:07.447Z,8.10
2023-04-09T07:46:34.899Z,8.58
2023-04-09T07:49:02.274Z,9.13
2023-04-09T07:51:29.648Z,9.15
2023-04-09T07:53:57.034Z,9.20
2023-04-09T07:56:24.388Z,9.73
2023-04-09T07:58:51.952Z,10.08
2023-04-09T08:01:24.428Z,10.63
2023-04-09T08:03:52.148Z,11.23
2023-04-09T08:06:19.707Z,11.80
2023-04-09T08:08:51.174Z,12.18
2023-04-09T08:11:24.972Z,12.03
2023-04-09T08:13:55.130Z,10.94
2023-04-09T08:16:24.421Z,10.06
2023-04-09T08:18:52.054Z,9.18
2023-04-09T08:21:19.628Z,8.98
2023-04-09T08:23:47.041Z,9.46
2023-04-09T08:26:14.467Z,9.56
2023-04-09T08:28:42.130Z,9.97
2023-04-09T08:31:12.093Z,9.89
2023-04-09T08:33:41.100Z,10.09
2023-04-09T08:36:11.292Z,10.41
2023-04-09T08:38:38.779Z,10.56
2023-04-09T08:41:06.512Z,10.75
2023-04-09T08:43:47.185Z,11.05
2023-04-09T08:46:22.804Z,10.58
2023-04-09T08:48:53.317Z,10.86
2023-04-09T08:51:23.270Z,10.91
2023-04-09T08:53:56.936Z,10.98
2023-04-09T08:56:24.742Z,10.73
2023-04-09T08:58:52.453Z,10.97
2023-04-09T09:01:21.724Z,11.43
2023-04-09T09:03:58.686Z,11.44
2023-04-09T09:06:28.697Z,12.35
2023-04-09T09:09:05.365Z,12.78
2023-04-09T09:11:33.504Z,13.40
2023-04-09T09:14:02.612Z,13.88
2023-04-09T09:16:31.229Z,13.78
2023-04-09T09:19:00.826Z,13.91
2023-04-09T09:21:28.756Z,14.64
2023-04-09T09:23:56.517Z,15.46
2023-04-09T09:26:25.574Z,15.34
2023-04-09T09:28:53.242Z,15.69
2023-04-09T09:31:22.425Z,16.09
2023-04-09T09:33:51.776Z,17.21
2023-04-09T09:36:33.245Z,17.32
2023-04-09T09:39:03.791Z,18.17
2023-04-09T09:41:31.754Z,17.65
2023-04-09T09:43:59.172Z,17.68
2023-04-09T09:46:27.422Z,17.39
2023-04-09T09:48:55.410Z,17.47
2023-04-09T09:51:27.642Z,17.67
2023-04-09T09:53:58.082Z,18.02
2023-04-09T09:56:32.483Z,18.24
2023-04-09T09:59:08.335Z,18.52
2023-04-09T10:01:36.556Z,18.68
2023-04-09T10:04:07.112Z,19.23
2023-04-09T10:06:35.561Z,18.64
2023-04-09T10:09:06.636Z,18.28
2023-04-09T10:11:36.257Z,17.70
2023-04-09T10:14:05.132Z,16.36
2023-04-09T10:16:34.709Z,16.13
2023-04-09T10:19:03.135Z,16.56
2023-04-09T10:21:39.520Z,17.47
2023-04-09T10:24:09.525Z,17.39
2023-04-09T10:26:42.368Z,17.83
2023-04-09T10:29:13.792Z,18.67
2023-04-09T10:31:52.246Z,18.83
2023-04-09T10:34:21.613Z,18.37
2023-04-09T10:36:55.309Z,17.64
2023-04-09T10:39:27.503Z,16.87
2023-04-09T10:41:55.764Z,17.33
2023-04-09T10:44:24.208Z,17.90
2023-04-09T10:46:54.687Z,18.42
2023-04-09T10:49:24.358Z,18.83
2023-04-09T10:51:53.390Z,18.43
2023-04-09T10:54:45.396Z,18.52
2023-04-09T10:57:14.998Z,18.19
2023-04-09T10:59:44.913Z,18.24
2023-04-09T11:02:44.512Z,18.51
2023-04-09T11:05:20.284Z,18.57
2023-04-09T11:07:56.660Z,17.99
2023-04-09T11:10:25.427Z,17.76
2023-04-09T11:12:53.692Z,17.82
2023-04-09T11:15:22.048Z,17.94
2023-04-09T11:17:51.403Z,17.88
2023-04-09T11:20:21.940Z,16.84
2023-04-09T11:22:51.980Z,16.99
2023-04-09T11:25:23.618Z,17.06
2023-04-09T11:27:52.528Z,17.10
2023-04-09T11:30:20.653Z,17.27
2023-04-09T11:32:49.018Z,17.20
2023-04-09T11:35:18.215Z,16.97
2023-04-09T11:37:46.924Z,17.19
2023-04-09T11:40:18.628Z,17.16
2023-04-09T11:42:46.957Z,17.24
2023-04-09T11:45:16.799Z,17.58
2023-04-09T11:47:45.637Z,18.09
2023-04-09T11:50:14.565Z,18.19
2023-04-09T11:52:42.274Z,18.62
2023-04-09T11:55:11.115Z,18.93
2023-04-09T11:57:43.840Z,19.04
2023-04-09T12:00:14.095Z,19.31
2023-04-09T12:02:46.290Z,19.26
2023-04-09T12:05:23.529Z,18.68
2023-04-09T12:07:56.360Z,19.36
2023-04-09T12:10:28.296Z,18.89
2023-04-09T12:12:56.186Z,19.31
2023-04-09T12:15:27.599Z,19.61
2023-04-09T12:17:56.793Z,19.15
2023-04-09T12:20:29.349Z,18.54
2023-04-09T12:22:56.882Z,17.80
2023-04-09T12:25:24.614Z,17.16
2023-04-09T12:27:52.081Z,16.32
2023-04-09T12:30:19.477Z,15.30
2023-04-09T12:32:46.951Z,15.56
2023-04-09T12:35:16.016Z,15.51
2023-04-09T12:37:44.075Z,15.50
2023-04-09T12:40:13.700Z,15.42
2023-04-09T12:42:41.605Z,15.14
2023-04-09T12:45:11.162Z,15.54
2023-04-09T12:47:39.570Z,16.40
2023-04-09T12:50:09.028Z,20.10
2023-04-09T12:52:37.848Z,22.77
2023-04-09T12:55:06.679Z,25.15
2023-04-09T12:57:34.512Z,27.14
2023-04-09T13:00:01.957Z,27.72
2023-04-09T13:02:30.084Z,26.71
2023-04-09T13:04:57.696Z,25.43
2023-04-09T13:07:26.047Z,23.08
2023-04-09T13:09:54.711Z,22.20
2023-04-09T13:12:22.305Z,21.13
2023-04-09T13:14:50.435Z,19.98
2023-04-09T13:17:26.607Z,18.79
2023-04-09T13:19:54.057Z,19.50
2023-04-09T13:22:21.456Z,20.60
2023-04-09T13:24:48.855Z,21.60
2023-04-09T13:27:18.082Z,21.75
2023-04-09T13:29:45.564Z,21.61
2023-04-09T13:32:13.203Z,21.25
2023-04-09T13:34:40.808Z,21.49
2023-04-09T13:37:08.162Z,20.86
2023-04-09T13:39:35.576Z,20.15
2023-04-09T13:42:12.745Z,20.07
2023-04-09T13:44:45.272Z,20.25
2023-04-09T13:47:13.026Z,20.18
2023-04-09T13:49:41.172Z,19.88
2023-04-09T13:52:08.550Z,20.12
2023-04-09T13:54:36.099Z,20.43
2023-04-09T13:57:03.842Z,19.93
2023-04-09T13:59:31.359Z,19.63
2023-04-09T14:02:00.348Z,19.93
2023-04-09T14:04:27.964Z,19.61
2023-04-09T14:06:55.386Z,18.93
2023-04-09T14:09:22.771Z,18.07
2023-04-09T14:11:50.855Z,18.09
2023-04-09T14:14:19.771Z,17.90
2023-04-09T14:16:48.260Z,18.25
2023-04-09T14:19:16.977Z,18.24
2023-04-09T14:21:44.950Z,18.20
2023-04-09T14:24:12.461Z,18.22
2023-04-09T14:26:40.045Z,17.74
2023-04-09T14:29:07.471Z,17.24
2023-04-09T14:31:34.895Z,16.91
2023-04-09T14:34:02.345Z,17.03
2023-04-09T14:36:31.584Z,17.45
2023-04-09T14:38:59.001Z,18.01
2023-04-09T14:41:26.830Z,18.54
2023-04-09T14:43:54.177Z,19.47
2023-04-09T14:46:22.108Z,19.09
2023-04-09T14:48:49.670Z,21.85
2023-04-09T14:51:17.317Z,26.37
2023-04-09T14:53:46.329Z,28.84
2023-04-09T14:56:13.774Z,31.25
2023-04-09T14:58:41.133Z,31.08
2023-04-09T15:01:08.955Z,29.73
2023-04-09T15:03:36.677Z,27.59
2023-04-09T15:06:04.557Z,25.07
2023-04-09T15:08:31.927Z,23.56
2023-04-09T15:11:00.675Z,21.02
2023-04-09T15:13:28.031Z,22.46
2023-04-09T15:15:55.489Z,23.33
2023-04-09T15:18:22.939Z,25.11
2023-04-09T15:20:51.114Z,28.34
2023-04-09T15:23:18.507Z,30.77
2023-04-09T15:25:45.928Z,31.30
2023-04-09T15:28:14.788Z,30.43
2023-04-09T15:30:42.174Z,30.23
2023-04-09T15:33:12.546Z,31.23
2023-04-09T15:35:40.008Z,31.39
2023-04-09T15:38:07.369Z,28.95
2023-04-09T15:40:34.740Z,28.02
2023-04-09T15:43:02.102Z,28.13
2023-04-09T15:45:31.121Z,29.76
2023-04-09T15:47:58.594Z,30.53
2023-04-09T15:50:26.144Z,30.00
2023-04-09T15:52:54.903Z,31.41
2023-04-09T15:55:22.908Z,30.86
2023-04-09T15:57:50.275Z,30.55
2023-04-09T16:00:17.666Z,29.59
2023-04-09T16:02:46.378Z,27.69
2023-04-09T16:05:13.753Z,26.96
2023-04-09T16:07:41.488Z,25.85
2023-04-09T16:10:09.875Z,26.74
2023-04-09T16:12:37.265Z,27.47
2023-04-09T16:15:05.016Z,27.68
2023-04-09T16:17:34.498Z,28.06
2023-04-09T16:20:09.937Z,27.36
2023-04-09T16:22:37.313Z,26.98
2023-04-09T16:25:04.954Z,27.05
2023-04-09T16:27:32.398Z,25.77
2023-04-09T16:30:00.240Z,23.20
2023-04-09T16:32:27.617Z,22.21
2023-04-09T16:34:56.015Z,22.25
2023-04-09T16:37:24.735Z,23.06
2023-04-09T16:42:19.343Z,23.70
2023-04-09T16:44:46.799Z,24.24
2023-04-09T16:47:14.175Z,24.36
2023-04-09T16:49:41.538Z,23.42
2023-04-09T16:52:08.976Z,22.84
2023-04-09T16:54:37.709Z,22.46
2023-04-09T16:57:05.153Z,23.12
2023-04-09T16:59:32.546Z,22.04
2023-04-09T17:01:59.972Z,22.13
2023-04-09T17:04:28.161Z,21.74
2023-04-09T17:06:55.624Z,21.83
2023-04-09T17:09:22.996Z,22.03
2023-04-09T17:11:52.864Z,22.20
2023-04-09T17:14:20.413Z,22.18
2023-04-09T17:16:48.360Z,20.42
2023-04-09T17:19:15.769Z,18.39
2023-04-09T17:21:43.144Z,17.21
2023-04-09T17:24:10.735Z,16.97
2023-04-09T17:26:38.100Z,15.79
2023-04-09T17:29:07.447Z,14.75
2023-04-09T17:31:34.823Z,13.06
2023-04-09T17:34:02.207Z,11.71
2023-04-09T17:36:31.528Z,11.25
2023-04-09T17:38:58.906Z,11.16
2023-04-09T17:41:27.625Z,11.05
2023-04-09T17:43:55.334Z,10.79
2023-04-09T17:46:24.462Z,10.45
2023-04-09T17:48:52.809Z,10.16
2023-04-09T17:51:20.645Z,10.08
2023-04-09T17:53:48.222Z,9.98
2023-04-09T17:56:17.523Z,9.74
2023-04-09T17:58:45.089Z,9.49
2023-04-09T18:01:13.419Z,9.12
2023-04-09T18:03:43.049Z,8.97
2023-04-09T18:06:10.826Z,8.86
2023-04-09T18:08:38.320Z,8.79
2023-04-09T18:11:12.879Z,8.61
2023-04-09T18:13:40.851Z,8.49
2023-04-09T18:16:09.923Z,8.38
2023-04-09T18:18:37.331Z,8.03
2023-04-09T18:21:06.986Z,7.74
2023-04-09T18:23:34.425Z,7.51
2023-04-09T18:26:01.842Z,7.33
2023-04-09T18:28:29.246Z,7.19
2023-04-09T18:30:57.603Z,7.24
2023-04-09T18:33:25.582Z,7.06
2023-04-09T18:35:53.003Z,6.83
2023-04-09T18:38:21.762Z,6.73
2023-04-09T18:40:49.171Z,6.90
2023-04-09T18:43:16.535Z,7.02
2023-04-09T18:45:43.970Z,7.02
2023-04-09T18:48:11.379Z,6.95
2023-04-09T18:50:38.804Z,7.02
2023-04-09T18:53:06.909Z,6.94
2023-04-09T18:55:37.554Z,6.76
2023-04-09T18:58:08.359Z,6.60
2023-04-09T19:00:35.833Z,6.54
2023-04-09T19:03:04.569Z,6.40
2023-04-09T19:05:32.576Z,6.30
2023-04-09T19:08:01.220Z,6.16
2023-04-09T19:10:29.193Z,6.17
2023-04-09T19:12:58.114Z,6.19
2023-04-09T19:15:28.263Z,6.16
2023-04-09T19:17:58.847Z,6.03
2023-04-09T19:20:26.362Z,6.11
2023-04-09T19:22:54.426Z,6.22
2023-04-09T19:25:22.646Z,6.28
2023-04-09T19:27:50.244Z,6.24
2023-04-09T19:30:20.334Z,6.13
2023-04-09T19:32:47.752Z,6.01
2023-04-09T19:35:15.403Z,5.99
2023-04-09T19:37:42.796Z,5.62
2023-04-09T19:40:11.129Z,5.42
2023-04-09T19:42:38.648Z,5.41
2023-04-09T19:45:07.024Z,5.42
2023-04-09T19:47:36.403Z,5.46
2023-04-09T19:50:03.948Z,5.29
2023-04-09T19:52:31.691Z,5.38
2023-04-09T19:54:59.113Z,5.25
2023-04-09T19:57:27.037Z,5.17
2023-04-09T19:59:55.044Z,5.07
2023-04-09T20:02:23.762Z,5.01
2023-04-09T20:04:54.310Z,4.97
2023-04-09T20:07:21.746Z,4.95
2023-04-09T20:09:51.895Z,5.03
2023-04-09T20:12:21.569Z,5.29
2023-04-09T20:14:49.352Z,5.23
2023-04-09T20:17:19.693Z,5.06
2023-04-09T20:19:47.046Z,5.16
2023-04-09T20:22:16.105Z,5.06
2023-04-09T20:24:43.722Z,5.03
2023-04-09T20:27:11.233Z,4.98
2023-04-09T20:29:39.591Z,4.94
2023-04-09T20:32:07.326Z,4.77
2023-04-09T20:34:36.726Z,4.86
2023-04-09T20:37:05.490Z,4.64
2023-04-09T20:39:34.198Z,4.53
2023-04-09T20:42:01.623Z,4.42
2023-04-09T20:44:29.853Z,4.28
2023-04-09T20:46:57.228Z,4.19
2023-04-09T20:49:24.589Z,4.12
2023-04-09T20:51:51.995Z,4.06
2023-04-09T20:54:23.163Z,4.12
2023-04-09T20:56:52.168Z,4.07
2023-04-09T20:59:19.931Z,4.04
2023-04-09T21:01:47.445Z,3.98
2023-04-09T21:04:18.340Z,3.87
2023-04-09T21:06:45.867Z,3.88
2023-04-09T21:09:13.246Z,3.83
2023-04-09T21:11:40.621Z,3.80
2023-04-09T21:14:10.980Z,3.68
2023-04-09T21:16:38.437Z,3.68
2023-04-09T21:19:07.685Z,3.53
2023-04-09T21:21:35.288Z,3.33
2023-04-09T21:24:02.760Z,3.53
2023-04-09T21:26:45.002Z,3.52
2023-04-09T21:29:18.492Z,3.48
2023-04-09T21:31:45.860Z,3.30
2023-04-09T21:34:13.512Z,3.15
2023-04-09T21:36:41.244Z,3.13
2023-04-09T21:39:08.679Z,2.98
2023-04-09T21:41:36.509Z,2.89
2023-04-09T21:44:08.732Z,2.97
2023-04-09T21:46:40.870Z,2.84
2023-04-09T21:49:08.473Z,2.74
2023-04-09T21:51:36.396Z,2.85
2023-04-09T21:54:05.162Z,2.91
2023-04-09T21:56:33.506Z,2.98
2023-04-09T21:59:01.560Z,2.99
2023-04-09T22:01:31.720Z,2.97
2023-04-09T22:04:01.496Z,2.84
2023-04-09T22:06:29.594Z,2.87
2023-04-09T22:08:58.218Z,2.94
2023-04-09T22:11:28.280Z,2.83
2023-04-09T22:13:58.920Z,2.86
2023-04-09T22:16:28.445Z,2.78
2023-04-09T22:18:56.189Z,2.64
2023-04-09T22:21:26.365Z,2.66
2023-04-09T22:23:53.751Z,2.72
2023-04-09T22:26:22.484Z,2.64
2023-04-09T22:28:50.142Z,2.48
2023-04-09T22:31:17.643Z,2.33
2023-04-09T22:33:45.042Z,2.37
2023-04-09T22:36:12.603Z,2.28
2023-04-09T22:38:42.552Z,2.10
2023-04-09T22:41:09.943Z,2.14
2023-04-09T22:43:37.570Z,2.12
2023-04-09T22:46:05.298Z,1.96
2023-04-09T22:48:35.913Z,1.94
2023-04-09T22:51:08.823Z,2.06
2023-04-09T22:53:36.206Z,2.13
2023-04-09T22:56:05.235Z,2.16
2023-04-09T22:58:32.606Z,2.17
2023-04-09T23:01:00.258Z,2.19
2023-04-09T23:03:27.893Z,2.23
2023-04-09T23:05:56.907Z,2.15
2023-04-09T23:08:24.262Z,2.08
2023-04-09T23:10:51.664Z,2.00
2023-04-09T23:13:20.386Z,2.06
2023-04-09T23:15:47.808Z,2.06
2023-04-09T23:18:15.300Z,2.15
2023-04-09T23:20:42.724Z,2.22
2023-04-09T23:23:10.118Z,2.23
2023-04-09T23:25:38.533Z,2.27
2023-04-09T23:28:05.930Z,2.31
2023-04-09T23:30:34.611Z,2.20
2023-04-09T23:33:02.137Z,2.12
2023-04-09T23:35:29.661Z,2.11
2023-04-09T23:37:58.389Z,2.11
2023-04-09T23:40:25.817Z,2.05
2023-04-09T23:42:53.254Z,2.02
2023-04-09T23:45:23.520Z,1.87
2023-04-09T23:47:52.772Z,1.74
2023-04-09T23:50:20.443Z,1.65
2023-04-09T23:52:49.734Z,1.76
2023-04-09T23:55:17.428Z,1.59
2023-04-09T23:57:44.879Z,1.47
